Time;durP1;ratioP1;P1;durP2;ratioP2;P2;SDS_P1;SDS_P2;PMS_P1;PMS_P2;Temp;Humidity;BMP_temperature;BMP_pressure;BME280_temperature;BME280_humidity;BME280_pressure;Samples;Min_cycle;Max_cycle;Signal;HPM_P1;HPM_P2
2022/01/16 00:00:40;;;;;;;;;;;1.90;87.50;;;;;;5093920;28;19934;-89
2022/01/16 00:05:54;;;;;;;;;;;1.90;87.90;;;;;;5093167;28;20003;-89
2022/01/16 00:08:20;;;;;;;;;;;1.90;88.20;;;;;;5093736;28;20358;-88
2022/01/16 00:10:45;;;;;;;;;;;1.90;88.30;;;;;;5093964;28;19957;-89
2022/01/16 00:13:11;;;;;;;;;;;1.90;88.40;;;;;;5093655;28;19934;-89
2022/01/16 00:15:36;;;;;;;;;;;1.80;88.40;;;;;;5093670;28;20285;-89
2022/01/16 00:20:28;;;;;;;;;;;1.70;88.50;;;;;;5093617;28;19908;-88
2022/01/16 00:22:53;;;;;;;;;;;1.70;88.80;;;;;;5093675;28;20278;-88
2022/01/16 00:25:19;;;;;;;;;;;1.70;88.60;;;;;;5093537;28;19908;-88
2022/01/16 00:27:45;;;;;;;;;;;1.70;88.60;;;;;;5093369;28;19916;-88
2022/01/16 00:30:11;;;;;;;;;;;1.60;88.60;;;;;;5093441;28;20380;-88
2022/01/16 00:32:36;;;;;;;;;;;1.60;88.40;;;;;;5093432;28;19915;-88
2022/01/16 00:35:03;;;;;;;;;;;1.60;88.10;;;;;;5093243;28;19919;-89
2022/01/16 00:37:28;;;;;;;;;;;1.70;87.80;;;;;;5093586;28;19931;-88
2022/01/16 00:39:54;;;;;;;;;;;1.70;87.60;;;;;;5093291;28;20358;-88
2022/01/16 00:42:19;;;;;;;;;;;1.80;87.50;;;;;;5093240;28;19914;-88
2022/01/16 00:44:45;;;;;;;;;;;1.80;87.40;;;;;;5093231;28;19915;-89
2022/01/16 00:47:10;;;;;;;;;;;1.80;87.60;;;;;;5093253;28;20354;-89
2022/01/16 00:49:39;;;;;;;;;;;1.80;87.50;;;;;;5093083;28;19923;-88
2022/01/16 00:52:08;;;;;;;;;;;1.80;87.50;;;;;;5093184;28;19908;-89
2022/01/16 00:54:33;;;;;;;;;;;1.80;87.30;;;;;;5092786;28;19920;-89
2022/01/16 00:56:59;;;;;;;;;;;1.70;87.30;;;;;;5093104;28;19914;-88
2022/01/16 00:59:25;;;;;;;;;;;1.70;87.00;;;;;;5093021;28;19991;-88
2022/01/16 01:01:50;;;;;;;;;;;1.60;86.90;;;;;;5093078;28;20373;-88
2022/01/16 01:04:16;;;;;;;;;;;1.60;87.20;;;;;;5093241;28;19982;-88
2022/01/16 01:06:41;;;;;;;;;;;1.60;87.70;;;;;;5093002;28;19958;-88
2022/01/16 01:09:07;;;;;;;;;;;1.70;88.20;;;;;;5092922;28;19915;-88
2022/01/16 01:11:33;;;;;;;;;;;1.70;88.00;;;;;;5092985;28;19931;-88
2022/01/16 01:16:38;;;;;;;;;;;1.70;87.00;;;;;;5093280;28;19908;-88
2022/01/16 01:19:04;;;;;;;;;;;1.70;86.80;;;;;;5092922;28;20050;-88
2022/01/16 01:21:30;;;;;;;;;;;1.60;86.10;;;;;;5093186;28;19991;-88
2022/01/16 01:23:57;;;;;;;;;;;1.60;86.30;;;;;;5092874;28;19915;-88
2022/01/16 01:26:33;;;;;;;;;;;1.60;86.70;;;;;;5092855;28;20373;-88
2022/01/16 01:28:59;;;;;;;;;;;1.50;87.00;;;;;;5092756;28;19922;-88
2022/01/16 01:31:30;;;;;;;;;;;1.50;87.70;;;;;;5092775;28;19908;-88
2022/01/16 01:33:55;;;;;;;;;;;1.50;87.90;;;;;;5092758;28;19918;-88
2022/01/16 01:36:21;;;;;;;;;;;1.50;88.10;;;;;;5092771;28;20002;-88
2022/01/16 01:38:47;;;;;;;;;;;1.40;88.60;;;;;;5092675;28;20314;-88
2022/01/16 01:41:12;;;;;;;;;;;1.50;88.90;;;;;;5092652;28;19908;-88
2022/01/16 01:51:36;;;;;;;;;;;1.60;89.80;;;;;;5092893;28;19958;-88
2022/01/16 01:54:03;;;;;;;;;;;1.60;89.90;;;;;;5092374;28;19924;-88
2022/01/16 01:56:28;;;;;;;;;;;1.60;89.70;;;;;;5092540;28;19940;-88
2022/01/16 01:58:55;;;;;;;;;;;1.60;89.30;;;;;;5092520;28;19915;-88
2022/01/16 02:01:22;;;;;;;;;;;1.50;89.10;;;;;;5093598;28;19908;-88
2022/01/16 02:03:49;;;;;;;;;;;1.60;89.00;;;;;;5096193;28;19908;-88
2022/01/16 02:06:19;;;;;;;;;;;1.50;88.90;;;;;;5096115;28;19909;-88
2022/01/16 02:08:46;;;;;;;;;;;1.50;88.90;;;;;;5095892;28;19918;-88
2022/01/16 02:11:13;;;;;;;;;;;1.50;89.10;;;;;;5096001;28;19919;-88
2022/01/16 02:13:49;;;;;;;;;;;1.50;89.00;;;;;;5095801;28;19919;-88
2022/01/16 02:34:52;;;;;;;;;;;1.30;89.80;;;;;;5095866;28;19969;-88
2022/01/16 02:37:19;;;;;;;;;;;1.20;89.60;;;;;;5095501;28;19908;-88
2022/01/16 02:39:49;;;;;;;;;;;1.10;89.90;;;;;;5095514;28;19908;-88
2022/01/16 02:42:16;;;;;;;;;;;1.10;90.30;;;;;;5095762;28;19908;-88
2022/01/16 02:47:10;;;;;;;;;;;1.20;90.30;;;;;;5095617;28;19953;-88
2022/01/16 02:49:36;;;;;;;;;;;1.20;90.10;;;;;;5095330;28;20026;-88
2022/01/16 02:52:09;;;;;;;;;;;1.20;90.10;;;;;;5095292;28;20341;-88
2022/01/16 02:54:37;;;;;;;;;;;1.20;90.00;;;;;;5094978;28;20335;-88
2022/01/16 02:57:03;;;;;;;;;;;1.10;90.20;;;;;;5095158;28;20011;-88
2022/01/16 02:59:29;;;;;;;;;;;1.10;90.20;;;;;;5095148;28;19999;-88
2022/01/16 03:01:54;;;;;;;;;;;1.10;90.20;;;;;;5095050;28;20365;-88
2022/01/16 03:04:20;;;;;;;;;;;1.10;90.20;;;;;;5095328;28;19908;-88
2022/01/16 03:06:46;;;;;;;;;;;1.10;90.00;;;;;;5095000;28;20282;-88
2022/01/16 03:09:12;;;;;;;;;;;1.00;89.30;;;;;;5094894;28;19912;-88
2022/01/16 03:11:41;;;;;;;;;;;0.70;89.30;;;;;;5094766;28;19915;-88
2022/01/16 03:14:10;;;;;;;;;;;0.60;89.70;;;;;;5094775;28;20003;-88
2022/01/16 03:16:37;;;;;;;;;;;0.60;90.20;;;;;;5095057;28;19908;-88
2022/01/16 03:22:03;;;;;;;;;;;0.70;90.60;;;;;;5094994;28;19961;-88
2022/01/16 03:24:34;;;;;;;;;;;0.80;90.90;;;;;;5094645;28;19908;-88
2022/01/16 03:27:01;;;;;;;;;;;0.80;90.90;;;;;;5094511;28;19908;-88
2022/01/16 03:29:27;;;;;;;;;;;0.90;90.80;;;;;;5094476;28;20348;-88
2022/01/16 03:31:53;;;;;;;;;;;0.90;90.60;;;;;;5094565;28;19947;-88
2022/01/16 03:34:19;;;;;;;;;;;0.90;90.30;;;;;;5093442;28;19959;-88
2022/01/16 03:36:44;;;;;;;;;;;1.00;90.20;;;;;;5094718;28;19908;-88
2022/01/16 03:39:10;;;;;;;;;;;0.90;90.00;;;;;;5094387;28;20258;-88
2022/01/16 03:41:37;;;;;;;;;;;0.90;89.90;;;;;;5094345;28;19915;-88
2022/01/16 03:44:03;;;;;;;;;;;0.90;90.00;;;;;;5094291;28;19944;-88
2022/01/16 03:46:36;;;;;;;;;;;0.90;90.00;;;;;;5094244;28;19915;-88
2022/01/16 03:49:06;;;;;;;;;;;0.90;90.20;;;;;;5094461;28;19908;-88
2022/01/16 03:51:35;;;;;;;;;;;0.90;90.30;;;;;;5094161;28;19912;-88
2022/01/16 03:54:00;;;;;;;;;;;0.90;90.20;;;;;;5093914;28;19920;-88
2022/01/16 03:56:26;;;;;;;;;;;0.90;89.90;;;;;;5094300;28;20399;-88
2022/01/16 03:58:51;;;;;;;;;;;0.90;89.90;;;;;;5093994;28;20453;-88
2022/01/16 04:01:17;;;;;;;;;;;0.90;89.80;;;;;;5093989;28;20385;-88
2022/01/16 04:03:43;;;;;;;;;;;0.90;89.70;;;;;;5093961;28;19931;-88
2022/01/16 04:06:08;;;;;;;;;;;0.90;89.60;;;;;;5093928;28;20006;-88
2022/01/16 04:08:34;;;;;;;;;;;0.90;89.60;;;;;;5093857;28;19912;-88
2022/01/16 04:11:00;;;;;;;;;;;0.90;89.70;;;;;;5093789;28;20273;-88
2022/01/16 04:13:26;;;;;;;;;;;0.80;89.80;;;;;;5093649;28;19908;-88
2022/01/16 04:15:51;;;;;;;;;;;0.80;89.90;;;;;;5093952;28;19915;-88
2022/01/16 04:18:17;;;;;;;;;;;0.80;90.00;;;;;;5093664;28;20431;-88
2022/01/16 04:20:43;;;;;;;;;;;0.80;90.20;;;;;;5093637;28;20358;-88
2022/01/16 04:23:10;;;;;;;;;;;0.70;90.30;;;;;;5093586;28;19908;-88
2022/01/16 04:25:36;;;;;;;;;;;0.70;90.50;;;;;;5093183;28;19908;-88
2022/01/16 04:28:02;;;;;;;;;;;0.70;90.60;;;;;;5093433;28;20282;-88
2022/01/16 04:30:27;;;;;;;;;;;0.70;90.50;;;;;;5093530;28;19915;-88
2022/01/16 04:32:53;;;;;;;;;;;0.70;90.40;;;;;;5093422;28;19908;-88
2022/01/16 04:35:19;;;;;;;;;;;0.70;90.20;;;;;;5093386;28;20258;-88
2022/01/16 04:37:44;;;;;;;;;;;0.70;90.30;;;;;;5093303;28;19908;-88
2022/01/16 04:40:10;;;;;;;;;;;0.70;90.40;;;;;;5093632;28;19915;-88
2022/01/16 04:45:21;;;;;;;;;;;0.70;90.60;;;;;;5093919;28;19957;-88
2022/01/16 04:47:47;;;;;;;;;;;0.70;90.70;;;;;;5093214;28;20312;-88
2022/01/16 04:50:13;;;;;;;;;;;0.80;90.60;;;;;;5093257;28;19931;-88
2022/01/16 04:52:39;;;;;;;;;;;0.90;90.70;;;;;;5093467;28;20358;-88
2022/01/16 04:55:06;;;;;;;;;;;0.90;90.80;;;;;;5060607;22;20024;-88
2022/01/16 04:57:32;;;;;;;;;;;0.90;90.80;;;;;;5052838;28;19916;-88
2022/01/16 04:59:57;;;;;;;;;;;0.90;90.80;;;;;;5052860;28;20421;-88
2022/01/16 05:02:23;;;;;;;;;;;0.90;90.70;;;;;;5052942;28;20394;-88
2022/01/16 05:04:48;;;;;;;;;;;0.90;90.30;;;;;;5053120;28;19909;-88
2022/01/16 05:07:14;;;;;;;;;;;0.90;90.10;;;;;;5052801;28;19916;-88
2022/01/16 05:09:39;;;;;;;;;;;0.80;89.70;;;;;;5052762;28;19959;-88
2022/01/16 05:12:11;;;;;;;;;;;0.70;89.80;;;;;;5052797;28;19908;-88
2022/01/16 05:17:20;;;;;;;;;;;0.80;90.30;;;;;;5053062;28;20269;-88
2022/01/16 05:19:46;;;;;;;;;;;0.80;90.40;;;;;;5052690;28;19909;-88
2022/01/16 05:22:11;;;;;;;;;;;0.80;90.20;;;;;;5052733;28;20374;-88
2022/01/16 05:24:37;;;;;;;;;;;0.80;90.00;;;;;;5052618;28;20450;-88
2022/01/16 05:27:04;;;;;;;;;;;0.80;89.90;;;;;;5052516;28;19995;-88
2022/01/16 05:29:30;;;;;;;;;;;0.80;89.70;;;;;;5052814;28;19944;-88
2022/01/16 05:31:56;;;;;;;;;;;0.80;89.50;;;;;;5052765;28;19990;-88
2022/01/16 05:34:25;;;;;;;;;;;0.80;89.50;;;;;;5052566;28;20355;-88
2022/01/16 05:36:51;;;;;;;;;;;0.80;89.60;;;;;;5054551;28;19915;-88
2022/01/16 05:39:16;;;;;;;;;;;0.70;89.50;;;;;;5056638;28;19908;-88
2022/01/16 05:41:42;;;;;;;;;;;0.70;89.40;;;;;;5056271;28;20371;-88
2022/01/16 05:44:08;;;;;;;;;;;0.70;89.30;;;;;;5056559;28;20007;-88
2022/01/16 05:46:33;;;;;;;;;;;0.70;89.20;;;;;;5056574;28;19954;-88
2022/01/16 05:48:59;;;;;;;;;;;0.70;89.20;;;;;;5056222;28;20316;-88
2022/01/16 05:51:24;;;;;;;;;;;0.60;89.20;;;;;;5056160;28;20246;-88
2022/01/16 05:53:51;;;;;;;;;;;0.50;89.40;;;;;;5055905;28;19921;-88
2022/01/16 05:56:16;;;;;;;;;;;0.60;89.60;;;;;;5056034;28;19955;-88
2022/01/16 05:58:42;;;;;;;;;;;0.60;89.90;;;;;;5056010;28;19912;-88
2022/01/16 06:01:08;;;;;;;;;;;0.60;89.90;;;;;;5056056;28;19935;-88
2022/01/16 06:03:33;;;;;;;;;;;0.60;89.90;;;;;;5055981;28;20362;-88
2022/01/16 06:05:59;;;;;;;;;;;0.60;90.00;;;;;;5056254;28;20311;-88
2022/01/16 06:08:24;;;;;;;;;;;0.60;90.00;;;;;;5055785;28;19909;-88
2022/01/16 06:10:50;;;;;;;;;;;0.60;90.00;;;;;;5055972;28;19909;-88
2022/01/16 06:13:16;;;;;;;;;;;0.60;90.10;;;;;;5055741;28;19908;-88
2022/01/16 06:15:41;;;;;;;;;;;0.60;90.10;;;;;;5055608;28;19916;-88
2022/01/16 06:18:07;;;;;;;;;;;0.60;90.20;;;;;;5055655;28;19956;-88
2022/01/16 06:20:33;;;;;;;;;;;0.60;90.20;;;;;;5055548;28;20358;-88
2022/01/16 06:23:00;;;;;;;;;;;0.50;89.90;;;;;;5055549;28;19912;-88
2022/01/16 06:25:26;;;;;;;;;;;0.50;89.70;;;;;;5055557;28;19999;-88
2022/01/16 06:27:52;;;;;;;;;;;0.60;89.70;;;;;;5055414;28;19998;-88
2022/01/16 06:30:17;;;;;;;;;;;0.60;89.60;;;;;;5055455;28;19909;-88
2022/01/16 06:32:43;;;;;;;;;;;0.60;89.60;;;;;;5055366;28;19924;-88
2022/01/16 06:35:09;;;;;;;;;;;0.50;89.40;;;;;;5055323;28;20321;-88
2022/01/16 06:37:35;;;;;;;;;;;0.50;89.40;;;;;;5055225;28;19909;-88
2022/01/16 06:40:01;;;;;;;;;;;0.50;89.40;;;;;;5055259;28;20382;-88
2022/01/16 06:42:27;;;;;;;;;;;0.50;89.20;;;;;;5055171;28;19916;-88
2022/01/16 06:44:52;;;;;;;;;;;0.40;89.20;;;;;;5055168;28;19913;-88
2022/01/16 06:47:18;;;;;;;;;;;0.40;89.40;;;;;;5054776;28;19908;-88
2022/01/16 06:49:44;;;;;;;;;;;0.30;89.60;;;;;;5055106;28;19971;-88
2022/01/16 06:52:09;;;;;;;;;;;0.20;90.00;;;;;;5055061;28;19909;-88
2022/01/16 06:54:35;;;;;;;;;;;0.20;90.20;;;;;;5054738;28;19934;-88
2022/01/16 06:57:00;;;;;;;;;;;0.20;90.20;;;;;;5054938;28;20158;-88
2022/01/16 06:59:26;;;;;;;;;;;0.30;90.30;;;;;;5055119;28;19915;-88
2022/01/16 07:01:51;;;;;;;;;;;0.30;90.20;;;;;;5054842;28;19940;-88
2022/01/16 07:04:17;;;;;;;;;;;0.40;90.10;;;;;;5054788;28;19916;-88
2022/01/16 07:06:42;;;;;;;;;;;0.40;89.70;;;;;;5054741;28;19912;-88
2022/01/16 07:09:08;;;;;;;;;;;0.40;89.30;;;;;;5054996;28;19966;-87
2022/01/16 07:11:34;;;;;;;;;;;0.50;89.00;;;;;;5054631;28;20359;-88
2022/01/16 07:13:59;;;;;;;;;;;0.50;88.70;;;;;;5054585;28;20362;-88
2022/01/16 07:16:25;;;;;;;;;;;0.50;88.80;;;;;;5054859;28;20285;-88
2022/01/16 07:18:50;;;;;;;;;;;0.50;88.90;;;;;;5054559;28;20485;-88
2022/01/16 07:21:16;;;;;;;;;;;0.50;88.90;;;;;;5054497;28;20464;-88
2022/01/16 07:23:42;;;;;;;;;;;0.50;88.90;;;;;;5054471;28;20329;-88
2022/01/16 07:26:08;;;;;;;;;;;0.60;89.20;;;;;;5054691;28;19931;-88
2022/01/16 07:28:33;;;;;;;;;;;0.60;89.20;;;;;;5054282;28;19908;-88
2022/01/16 07:30:59;;;;;;;;;;;0.70;89.30;;;;;;5054312;28;19952;-88
2022/01/16 07:33:25;;;;;;;;;;;0.60;89.30;;;;;;5054259;28;20315;-88
2022/01/16 07:35:50;;;;;;;;;;;0.60;89.30;;;;;;5054303;28;20359;-88
2022/01/16 07:38:16;;;;;;;;;;;0.60;89.60;;;;;;5054430;28;20385;-88
2022/01/16 07:40:41;;;;;;;;;;;0.60;89.90;;;;;;5054107;28;20370;-88
2022/01/16 07:43:07;;;;;;;;;;;0.70;90.20;;;;;;5054061;28;19948;-88
2022/01/16 07:45:33;;;;;;;;;;;0.70;90.30;;;;;;5054335;28;19924;-88
2022/01/16 07:47:59;;;;;;;;;;;0.70;90.30;;;;;;5053942;28;19920;-88
2022/01/16 07:50:24;;;;;;;;;;;0.70;90.40;;;;;;5053914;28;19909;-88
2022/01/16 07:52:50;;;;;;;;;;;0.80;90.50;;;;;;5053877;28;19920;-88
2022/01/16 07:55:16;;;;;;;;;;;0.90;90.60;;;;;;5053523;28;20011;-88
2022/01/16 07:57:41;;;;;;;;;;;0.90;90.70;;;;;;5053994;28;19916;-88
2022/01/16 08:00:07;;;;;;;;;;;1.00;90.70;;;;;;5053044;28;19913;-88
2022/01/16 08:02:33;;;;;;;;;;;1.00;90.80;;;;;;5053768;28;19958;-88
2022/01/16 08:04:58;;;;;;;;;;;1.10;90.80;;;;;;5053722;28;20390;-88
2022/01/16 08:07:24;;;;;;;;;;;1.20;91.00;;;;;;5053882;28;20275;-88
2022/01/16 08:09:49;;;;;;;;;;;1.20;91.10;;;;;;5053497;28;20321;-88
2022/01/16 08:12:15;;;;;;;;;;;1.40;91.30;;;;;;5053517;28;19931;-88
2022/01/16 08:14:41;;;;;;;;;;;1.40;91.50;;;;;;5053371;28;19913;-88
2022/01/16 08:17:06;;;;;;;;;;;1.50;91.60;;;;;;5035645;28;19909;-88
2022/01/16 08:19:32;;;;;;;;;;;1.60;91.70;;;;;;5053362;28;19919;-88
2022/01/16 08:21:58;;;;;;;;;;;1.80;91.70;;;;;;5053303;28;19943;-88
2022/01/16 08:24:24;;;;;;;;;;;1.90;91.60;;;;;;5053282;28;20259;-88
2022/01/16 08:26:50;;;;;;;;;;;2.00;91.40;;;;;;5053159;28;19952;-88
2022/01/16 08:29:16;;;;;;;;;;;2.10;91.20;;;;;;5053149;28;19955;-88
2022/01/16 08:31:41;;;;;;;;;;;2.20;91.10;;;;;;5053155;28;19909;-88
2022/01/16 08:34:07;;;;;;;;;;;2.30;90.60;;;;;;5053101;28;19936;-88
2022/01/16 08:36:33;;;;;;;;;;;2.40;89.90;;;;;;5053101;28;19917;-88
2022/01/16 08:38:58;;;;;;;;;;;2.50;89.60;;;;;;5053043;28;19913;-88
2022/01/16 08:41:24;;;;;;;;;;;2.60;89.20;;;;;;5053266;28;19940;-88
2022/01/16 08:43:51;;;;;;;;;;;2.70;88.90;;;;;;5052991;28;19916;-88
2022/01/16 08:46:17;;;;;;;;;;;2.70;88.70;;;;;;5053182;28;19909;-88
2022/01/16 08:48:42;;;;;;;;;;;2.80;88.30;;;;;;5052878;28;19935;-88
2022/01/16 08:51:08;;;;;;;;;;;2.90;87.90;;;;;;5052856;28;19909;-88
2022/01/16 08:53:34;;;;;;;;;;;3.00;87.50;;;;;;5052726;28;19920;-88
2022/01/16 08:55:59;;;;;;;;;;;3.10;87.20;;;;;;5052886;28;19940;-88
2022/01/16 08:58:25;;;;;;;;;;;3.20;87.00;;;;;;5052836;28;20457;-88
2022/01/16 09:00:51;;;;;;;;;;;3.30;86.50;;;;;;5052887;28;20007;-88
2022/01/16 09:03:17;;;;;;;;;;;3.40;86.20;;;;;;5052806;28;19915;-88
2022/01/16 09:05:44;;;;;;;;;;;3.50;85.90;;;;;;5052813;28;19913;-88
2022/01/16 09:08:10;;;;;;;;;;;3.60;86.00;;;;;;5052711;28;19934;-88
2022/01/16 09:10:37;;;;;;;;;;;3.70;86.00;;;;;;5054434;28;19908;-88
2022/01/16 09:13:03;;;;;;;;;;;3.80;86.10;;;;;;5057123;28;19920;-88
2022/01/16 09:15:29;;;;;;;;;;;3.90;85.80;;;;;;5056804;28;19913;-88
2022/01/16 09:17:54;;;;;;;;;;;4.10;85.40;;;;;;5056802;28;20051;-88
2022/01/16 09:20:20;;;;;;;;;;;4.20;85.20;;;;;;5056748;28;20405;-88
2022/01/16 09:22:48;;;;;;;;;;;4.30;84.90;;;;;;5056954;28;20359;-89
2022/01/16 09:25:14;;;;;;;;;;;4.50;84.50;;;;;;5056985;28;19916;-88
2022/01/16 09:27:40;;;;;;;;;;;4.50;84.40;;;;;;5056622;28;19908;-88
2022/01/16 09:30:07;;;;;;;;;;;4.60;84.20;;;;;;5056642;28;20346;-89
2022/01/16 09:32:33;;;;;;;;;;;4.70;84.00;;;;;;5038615;28;19916;-88
2022/01/16 09:35:02;;;;;;;;;;;4.80;83.90;;;;;;5056403;28;19924;-89
2022/01/16 09:37:28;;;;;;;;;;;4.90;83.70;;;;;;5056383;28;19908;-89
2022/01/16 09:39:54;;;;;;;;;;;5.00;83.30;;;;;;5056367;28;19916;-88
2022/01/16 09:42:23;;;;;;;;;;;5.10;83.00;;;;;;5038424;28;19931;-88
2022/01/16 09:44:48;;;;;;;;;;;5.20;82.90;;;;;;5056302;28;20386;-89
2022/01/16 09:47:14;;;;;;;;;;;5.40;82.50;;;;;;5056268;28;19909;-88
2022/01/16 09:49:40;;;;;;;;;;;5.50;82.50;;;;;;5056172;28;19944;-88
2022/01/16 09:52:06;;;;;;;;;;;5.60;82.30;;;;;;5056173;28;19961;-88
2022/01/16 09:54:32;;;;;;;;;;;5.70;81.90;;;;;;5055958;28;20020;-88
2022/01/16 09:56:58;;;;;;;;;;;5.90;81.60;;;;;;5056064;28;19955;-89
2022/01/16 09:59:24;;;;;;;;;;;6.00;81.10;;;;;;5055979;28;19909;-88
2022/01/16 10:01:50;;;;;;;;;;;6.10;80.40;;;;;;5055966;28;20405;-88
2022/01/16 10:04:30;;;;;;;;;;;6.20;80.10;;;;;;5055878;28;19908;-89
2022/01/16 10:06:57;;;;;;;;;;;6.30;80.10;;;;;;5056102;28;19908;-88
2022/01/16 10:09:22;;;;;;;;;;;6.40;80.10;;;;;;5055729;28;19916;-88
2022/01/16 10:11:56;;;;;;;;;;;6.50;79.70;;;;;;5055781;28;19909;-88
2022/01/16 10:14:34;;;;;;;;;;;6.70;79.40;;;;;;5055670;28;19913;-89
2022/01/16 10:17:08;;;;;;;;;;;6.80;78.50;;;;;;5055932;28;19916;-88
2022/01/16 10:19:33;;;;;;;;;;;6.80;77.80;;;;;;5055594;28;19952;-88
2022/01/16 10:22:09;;;;;;;;;;;6.90;77.60;;;;;;5036976;28;19948;-88
2022/01/16 10:24:35;;;;;;;;;;;6.90;77.40;;;;;;5055572;28;19909;-88
2022/01/16 10:27:07;;;;;;;;;;;7.00;76.90;;;;;;5055434;28;19915;-88
2022/01/16 10:29:34;;;;;;;;;;;7.20;77.20;;;;;;5055440;28;19909;-88
2022/01/16 10:32:18;;;;;;;;;;;7.40;75.10;;;;;;5055286;28;19916;-88
2022/01/16 10:34:45;;;;;;;;;;;7.70;72.30;;;;;;5055187;28;20260;-89
2022/01/16 10:37:18;;;;;;;;;;;7.80;72.50;;;;;;5055191;28;19915;-88
2022/01/16 10:39:54;;;;;;;;;;;8.00;72.60;;;;;;5055224;28;19916;-88
2022/01/16 10:42:19;;;;;;;;;;;8.00;71.90;;;;;;5055225;28;19954;-89
2022/01/16 10:44:45;;;;;;;;;;;8.20;71.50;;;;;;5055218;28;19912;-88
2022/01/16 10:47:27;;;;;;;;;;;8.30;71.30;;;;;;5055198;28;19908;-88
2022/01/16 10:50:00;;;;;;;;;;;8.50;71.00;;;;;;5055122;28;20255;-88
2022/01/16 10:52:25;;;;;;;;;;;8.60;68.90;;;;;;5055073;28;20442;-89
2022/01/16 10:54:51;;;;;;;;;;;8.60;69.50;;;;;;5054531;28;20012;-88
2022/01/16 10:57:18;;;;;;;;;;;8.70;69.10;;;;;;5054900;28;19953;-88
2022/01/16 10:59:44;;;;;;;;;;;8.90;67.50;;;;;;5055198;28;19912;-88
2022/01/16 11:02:10;;;;;;;;;;;8.90;67.70;;;;;;5054882;28;19931;-88
2022/01/16 11:04:35;;;;;;;;;;;9.00;67.60;;;;;;5055031;28;19915;-88
2022/01/16 11:07:02;;;;;;;;;;;9.10;67.10;;;;;;5054820;28;19908;-88
2022/01/16 11:09:28;;;;;;;;;;;9.10;68.00;;;;;;5054704;28;19959;-89
2022/01/16 11:11:59;;;;;;;;;;;9.20;67.30;;;;;;5054613;28;19909;-89
2022/01/16 11:14:26;;;;;;;;;;;9.30;67.30;;;;;;5054508;28;19999;-89
2022/01/16 11:16:52;;;;;;;;;;;9.40;64.30;;;;;;5054661;28;19916;-88
2022/01/16 11:19:21;;;;;;;;;;;9.50;64.50;;;;;;5054521;28;20273;-89
2022/01/16 11:21:50;;;;;;;;;;;9.70;64.00;;;;;;5054686;28;19909;-89
2022/01/16 11:24:34;;;;;;;;;;;9.80;64.50;;;;;;5054619;28;19909;-89
2022/01/16 11:27:00;;;;;;;;;;;9.90;64.50;;;;;;5054358;28;19909;-89
2022/01/16 11:29:27;;;;;;;;;;;10.00;64.60;;;;;;5054286;28;20280;-89
2022/01/16 11:31:54;;;;;;;;;;;10.30;64.50;;;;;;5054234;28;19916;-89
2022/01/16 11:34:20;;;;;;;;;;;10.50;62.60;;;;;;5035391;28;19976;-89
2022/01/16 11:36:45;;;;;;;;;;;10.70;62.30;;;;;;5054173;28;19916;-89
2022/01/16 11:39:11;;;;;;;;;;;10.90;62.10;;;;;;5054149;28;19909;-89
2022/01/16 11:41:46;;;;;;;;;;;11.10;60.30;;;;;;5054067;28;20008;-89
2022/01/16 11:44:23;;;;;;;;;;;11.30;57.30;;;;;;5036115;28;19916;-89
2022/01/16 11:46:50;;;;;;;;;;;11.60;57.20;;;;;;5054273;28;19915;-89
2022/01/16 11:49:19;;;;;;;;;;;11.90;56.10;;;;;;5053858;28;19909;-89
2022/01/16 11:51:51;;;;;;;;;;;12.00;54.30;;;;;;5053973;28;19915;-89
2022/01/16 11:54:26;;;;;;;;;;;12.40;54.90;;;;;;5053786;28;20043;-89
2022/01/16 11:57:01;;;;;;;;;;;12.70;53.60;;;;;;5053788;28;19915;-89
2022/01/16 11:59:30;;;;;;;;;;;13.10;52.60;;;;;;5053757;28;19915;-89
2022/01/16 12:01:55;;;;;;;;;;;13.80;51.20;;;;;;5053978;28;19916;-89
2022/01/16 12:04:30;;;;;;;;;;;14.50;48.80;;;;;;5053713;28;19909;-89
2022/01/16 12:07:15;;;;;;;;;;;15.40;47.20;;;;;;5053650;28;19909;-90
2022/01/16 12:09:49;;;;;;;;;;;16.10;44.40;;;;;;5053503;28;20354;-89
2022/01/16 12:12:15;;;;;;;;;;;17.00;42.00;;;;;;5053804;28;19997;-89
2022/01/16 12:14:47;;;;;;;;;;;17.20;40.50;;;;;;5053413;28;20366;-90
2022/01/16 12:17:28;;;;;;;;;;;17.00;40.20;;;;;;5053431;28;19912;-89
2022/01/16 12:19:55;;;;;;;;;;;16.80;40.60;;;;;;5053425;28;19909;-89
2022/01/16 12:22:42;;;;;;;;;;;16.50;42.30;;;;;;5053373;28;19909;-89
2022/01/16 12:25:15;;;;;;;;;;;16.30;42.10;;;;;;5053573;28;19971;-89
2022/01/16 12:27:50;;;;;;;;;;;16.30;42.80;;;;;;5053143;28;20016;-89
2022/01/16 12:30:35;;;;;;;;;;;16.30;41.90;;;;;;5053286;28;19908;-89
2022/01/16 12:33:10;;;;;;;;;;;16.40;42.30;;;;;;5053227;28;19916;-89
2022/01/16 12:35:39;;;;;;;;;;;16.30;42.30;;;;;;5053078;28;19920;-89
2022/01/16 12:38:12;;;;;;;;;;;16.10;41.10;;;;;;5035277;28;19909;-89
2022/01/16 12:40:39;;;;;;;;;;;15.80;42.60;;;;;;5053166;28;19909;-89
2022/01/16 12:43:08;;;;;;;;;;;15.80;43.10;;;;;;5053042;28;20373;-89
2022/01/16 12:45:37;;;;;;;;;;;16.00;44.00;;;;;;5052736;28;19913;-89
2022/01/16 12:48:03;;;;;;;;;;;15.90;42.80;;;;;;5052985;28;19955;-89
2022/01/16 12:50:29;;;;;;;;;;;15.70;44.90;;;;;;5052894;28;19908;-89
2022/01/16 12:52:54;;;;;;;;;;;16.00;43.40;;;;;;5061774;22;19958;-89
2022/01/16 12:55:29;;;;;;;;;;;16.30;43.20;;;;;;5072199;28;21524;-89
2022/01/16 12:58:13;;;;;;;;;;;16.60;42.00;;;;;;5073231;28;19974;-89
2022/01/16 13:00:56;;;;;;;;;;;16.40;41.20;;;;;;5072917;28;19924;-89
2022/01/16 13:03:28;;;;;;;;;;;16.40;42.30;;;;;;5072956;28;20286;-89
2022/01/16 13:06:13;;;;;;;;;;;16.60;43.30;;;;;;5072950;28;19908;-89
2022/01/16 13:09:07;;;;;;;;;;;17.30;41.00;;;;;;5072824;28;20262;-90
2022/01/16 13:11:35;;;;;;;;;;;17.20;42.10;;;;;;5063914;28;20003;-89
2022/01/16 13:14:01;;;;;;;;;;;17.30;41.20;;;;;;5072786;28;20003;-90
2022/01/16 13:16:28;;;;;;;;;;;17.30;41.20;;;;;;5072774;28;20377;-89
2022/01/16 13:19:00;;;;;;;;;;;17.50;40.40;;;;;;5073058;28;19962;-89
2022/01/16 13:21:33;;;;;;;;;;;17.10;41.20;;;;;;5072733;28;19908;-89
2022/01/16 13:23:58;;;;;;;;;;;16.80;42.70;;;;;;5072789;28;19908;-89
2022/01/16 13:26:27;;;;;;;;;;;16.80;42.50;;;;;;5072706;28;20427;-89
2022/01/16 13:29:06;;;;;;;;;;;17.10;41.60;;;;;;5072624;28;19909;-89
2022/01/16 13:31:34;;;;;;;;;;;17.10;42.10;;;;;;5072696;28;19940;-89
2022/01/16 13:34:15;;;;;;;;;;;16.90;41.90;;;;;;5072602;28;20408;-89
2022/01/16 13:36:54;;;;;;;;;;;16.70;42.70;;;;;;5072623;28;19966;-88
2022/01/16 13:39:32;;;;;;;;;;;16.50;42.90;;;;;;5072642;28;19915;-89
2022/01/16 13:42:10;;;;;;;;;;;16.40;43.80;;;;;;5072566;28;19908;-89
2022/01/16 13:44:35;;;;;;;;;;;16.50;43.20;;;;;;5072469;28;19916;-89
2022/01/16 13:47:01;;;;;;;;;;;16.70;43.00;;;;;;5072526;28;19908;-89
2022/01/16 13:49:26;;;;;;;;;;;17.00;42.70;;;;;;5072476;28;20026;-89
2022/01/16 13:51:56;;;;;;;;;;;17.00;42.60;;;;;;5072427;28;19915;-89
2022/01/16 13:54:27;;;;;;;;;;;17.20;43.30;;;;;;5072130;28;20285;-89
2022/01/16 13:56:53;;;;;;;;;;;17.20;43.30;;;;;;5072768;28;20023;-89
2022/01/16 13:59:19;;;;;;;;;;;17.00;43.40;;;;;;5076146;28;19995;-89
2022/01/16 14:01:51;;;;;;;;;;;16.90;43.90;;;;;;5076055;28;19967;-89
2022/01/16 14:04:17;;;;;;;;;;;17.20;43.20;;;;;;5076002;28;19987;-89
2022/01/16 14:06:47;;;;;;;;;;;17.40;43.30;;;;;;5075975;28;19940;-89
2022/01/16 14:09:13;;;;;;;;;;;17.50;42.80;;;;;;5075838;28;20136;-89
2022/01/16 14:11:41;;;;;;;;;;;17.20;43.00;;;;;;5075895;28;19908;-89
2022/01/16 14:14:06;;;;;;;;;;;17.10;43.60;;;;;;5075742;28;19959;-89
2022/01/16 14:16:41;;;;;;;;;;;17.20;43.80;;;;;;5075822;28;19946;-89
2022/01/16 14:19:12;;;;;;;;;;;17.10;43.20;;;;;;5076011;28;19915;-89
2022/01/16 14:24:46;;;;;;;;;;;17.00;43.80;;;;;;5075947;28;20376;-89
2022/01/16 14:27:13;;;;;;;;;;;16.80;43.40;;;;;;5075498;28;20437;-89
2022/01/16 14:29:43;;;;;;;;;;;16.50;44.80;;;;;;5075621;28;20007;-89
2022/01/16 14:32:10;;;;;;;;;;;16.40;45.00;;;;;;5075551;28;19930;-89
2022/01/16 14:34:36;;;;;;;;;;;16.30;45.10;;;;;;5075386;28;19919;-89
2022/01/16 14:37:03;;;;;;;;;;;16.40;45.60;;;;;;5075451;28;19914;-89
2022/01/16 14:39:28;;;;;;;;;;;16.30;45.10;;;;;;5075354;28;19909;-89
2022/01/16 14:41:54;;;;;;;;;;;16.10;45.60;;;;;;5075339;28;19917;-89
2022/01/16 14:44:20;;;;;;;;;;;15.80;46.70;;;;;;5075581;28;20007;-89
2022/01/16 14:46:46;;;;;;;;;;;15.70;46.70;;;;;;5075204;28;19908;-89
2022/01/16 14:49:12;;;;;;;;;;;15.70;46.50;;;;;;5075255;28;19916;-89
2022/01/16 14:51:38;;;;;;;;;;;15.60;47.50;;;;;;5075204;28;19951;-89
2022/01/16 14:54:04;;;;;;;;;;;14.90;48.60;;;;;;5074956;28;19973;-89
2022/01/16 14:56:29;;;;;;;;;;;14.40;50.20;;;;;;5075308;28;19908;-89
2022/01/16 14:58:55;;;;;;;;;;;14.20;51.00;;;;;;5075072;28;20362;-89
2022/01/16 15:01:20;;;;;;;;;;;14.30;51.10;;;;;;5074973;28;20390;-89
2022/01/16 15:03:46;;;;;;;;;;;14.50;50.70;;;;;;5074934;28;19944;-89
2022/01/16 15:06:12;;;;;;;;;;;14.50;50.80;;;;;;5074821;28;19915;-89
2022/01/16 15:08:39;;;;;;;;;;;14.50;50.80;;;;;;5074509;28;19915;-91
2022/01/16 15:11:06;;;;;;;;;;;14.30;51.30;;;;;;5074747;28;19909;-89
2022/01/16 15:13:32;;;;;;;;;;;14.30;51.50;;;;;;5073894;28;19920;-89
2022/01/16 15:15:57;;;;;;;;;;;14.30;51.70;;;;;;5073527;28;19924;-89